Armstrong Airport
CYYW : now visible

Airfield :











YOU CAN JOIN US ON...

 
LOGIN :

Register | Disclaimer

   EN    FR    IT 

 









Legend :    VFR   Marginal VFR   IFR   Intensive IFR   Very Intensive IFR
Visi :
Ceiling :
>= 8 km
>= 3000ft
5 to 8 km
1000 to 3000 ft
1500m to 5 km
500 to 1000 ft
800 to 1500m
200 to 500 ft
< 800m
< 200 ft
Symbols :   Thunderstorms  Fog  Heavy snow  Heavy precipitations  Wind > 20 kt






- Airport Elevation : 1058 ft
- IATA code : YYW


CYYW - Armstrong

CURRENT METAR :
  • 190533Z AUTO VRB04KT 9SM M12/M14 A3004 RMK CLD MISG SLP209

EXPIRED METARs :
  • 190521Z AUTO 36003KT 290V090 9SM -SN SCT060 M12/M14 A3004 RMK SLP207
  • 190506Z AUTO /////KT 9SM M12/M14 A3003 RMK SLP204
  • 190457Z AUTO VRB03KT 9SM -SN OVC050 M12/M14 A3002 RMK SLP202
  • 190400Z AUTO 36003KT 290V070 9SM M12/M13 A2998 RMK CLD MISG SLP189
  • 190334Z AUTO VRB02KT 9SM SCT045 BKN085 M11/M13 A2997 RMK SLP184
  • 190318Z AUTO VRB03KT 6SM -SN M11/M12 A2996 RMK CLD MISG SLP181
  • 190317Z AUTO VRB04KT 6SM RMK CLD MISG PCPN MISG T MISG TD MISG DENSITY ALT MISG
  • 190305Z AUTO VRB05KT M11/M12 A2996 RMK CLD MISG WX MISG VIS MISG PCPN MISG SLP178
  • 190253Z AUTO VRB04KT 2 1/2SM -SN M11/M12 A2995 RMK CLD MISG SLP177

TAF N/A



MET'MAP, your aeronautical weather chart ! - Copyright ORBIFLY December 2007 - Disclaimer

ORBIFLY MET'MAP TEAM :

Programming & Development : Alexandra Zaïnal
Concept & original design : Baudouin d'Aumeries
Assistance for programming : Marc-Olivier Méhu
Technical & hardware support : Manuel Goepfert

Contact : metmap@orbifly.com




SOURCES & CREDITS :

   NOAA       Earth
Advisory